createdAt,value
2022-10-08T00:00:12.259Z,15.15
2022-10-08T00:03:03.623Z,15.14
2022-10-08T00:05:40.437Z,15.13
2022-10-08T00:08:10.571Z,15.15
2022-10-08T00:10:39.809Z,15.17
2022-10-08T00:13:14.842Z,15.18
2022-10-08T00:15:44.012Z,15.19
2022-10-08T00:18:17.643Z,15.22
2022-10-08T00:20:50.359Z,15.21
2022-10-08T00:23:19.594Z,15.19
2022-10-08T00:25:48.627Z,15.20
2022-10-08T00:28:17.737Z,15.20
2022-10-08T00:30:48.366Z,15.21
2022-10-08T00:33:17.636Z,15.21
2022-10-08T00:35:49.828Z,15.21
2022-10-08T00:38:23.234Z,15.22
2022-10-08T00:40:55.161Z,15.25
2022-10-08T00:43:48.480Z,15.25
2022-10-08T00:46:31.549Z,15.27
2022-10-08T00:49:17.934Z,15.30
2022-10-08T00:51:57.397Z,15.31
2022-10-08T00:54:26.515Z,15.34
2022-10-08T00:56:55.590Z,15.36
2022-10-08T00:59:24.812Z,15.35
2022-10-08T01:01:54.295Z,15.33
2022-10-08T01:04:26.771Z,15.29
2022-10-08T01:07:03.850Z,15.29
2022-10-08T01:10:09.903Z,15.31
2022-10-08T01:13:19.685Z,15.33
2022-10-08T01:16:01.108Z,15.33
2022-10-08T01:19:24.336Z,15.35
2022-10-08T01:22:27.757Z,15.34
2022-10-08T01:25:30.822Z,15.33
2022-10-08T01:28:39.251Z,15.33
2022-10-08T01:31:19.277Z,15.30
2022-10-08T01:34:10.146Z,15.27
2022-10-08T01:36:47.422Z,15.30
2022-10-08T01:39:26.209Z,15.32
2022-10-08T01:42:02.605Z,15.34
2022-10-08T01:45:09.908Z,15.34
2022-10-08T01:47:45.065Z,15.32
2022-10-08T01:50:20.464Z,15.34
2022-10-08T01:52:59.635Z,15.36
2022-10-08T01:55:37.419Z,15.35
2022-10-08T01:58:12.667Z,15.36
2022-10-08T02:01:27.995Z,15.39
2022-10-08T02:04:18.134Z,15.37
2022-10-08T02:06:55.814Z,15.39
2022-10-08T02:09:29.375Z,15.42
2022-10-08T02:11:58.312Z,15.46
2022-10-08T02:14:29.603Z,15.49
2022-10-08T02:17:35.933Z,15.50
2022-10-08T02:20:47.924Z,15.49
2022-10-08T02:24:02.906Z,15.49
2022-10-08T02:26:42.731Z,15.50
2022-10-08T02:29:20.890Z,15.53
2022-10-08T02:32:03.231Z,15.56
2022-10-08T02:34:45.657Z,15.57
2022-10-08T02:37:22.963Z,15.60
2022-10-08T02:40:00.082Z,15.60
2022-10-08T02:42:32.783Z,15.61
2022-10-08T02:45:19.251Z,15.62
2022-10-08T02:47:56.955Z,15.62
2022-10-08T02:50:29.077Z,15.59
2022-10-08T02:52:59.036Z,15.56
2022-10-08T02:55:41.899Z,15.55
2022-10-08T02:58:12.805Z,15.52
2022-10-08T03:01:01.338Z,15.52
2022-10-08T03:03:56.113Z,15.44
2022-10-08T03:06:31.573Z,15.40
2022-10-08T03:09:02.379Z,15.38
2022-10-08T03:11:35.881Z,15.37
2022-10-08T03:14:13.891Z,15.32
2022-10-08T03:16:46.850Z,15.29
2022-10-08T03:19:18.750Z,15.29
2022-10-08T03:21:52.746Z,15.25
2022-10-08T03:24:22.206Z,15.21
2022-10-08T03:26:53.504Z,15.19
2022-10-08T03:29:22.711Z,15.14
2022-10-08T03:31:51.742Z,15.12
2022-10-08T03:34:20.810Z,15.11
2022-10-08T03:36:51.140Z,15.10
2022-10-08T03:39:22.740Z,15.08
2022-10-08T03:41:51.858Z,15.06
2022-10-08T03:44:20.860Z,15.01
2022-10-08T03:46:49.817Z,14.96
2022-10-08T03:49:18.815Z,14.89
2022-10-08T03:51:47.952Z,14.83
2022-10-08T03:54:16.961Z,14.78
2022-10-08T03:56:46.051Z,14.74
2022-10-08T03:59:14.951Z,14.71
2022-10-08T04:01:44.106Z,14.71
2022-10-08T04:04:20.708Z,14.72
2022-10-08T04:06:53.784Z,14.74
2022-10-08T04:09:22.844Z,14.73
2022-10-08T04:11:54.063Z,14.72
2022-10-08T04:14:23.437Z,14.70
2022-10-08T04:16:55.488Z,14.67
2022-10-08T04:19:26.372Z,14.63
2022-10-08T04:21:55.423Z,14.57
2022-10-08T04:24:26.591Z,14.51
2022-10-08T04:26:57.949Z,14.46
2022-10-08T04:29:29.496Z,14.43
2022-10-08T04:31:58.635Z,14.40
2022-10-08T04:34:30.195Z,14.39
2022-10-08T04:37:04.713Z,14.35
2022-10-08T04:39:34.133Z,14.31
2022-10-08T04:42:05.997Z,14.31
2022-10-08T04:44:36.990Z,14.33
2022-10-08T04:47:06.165Z,14.22
2022-10-08T04:49:35.351Z,14.19
2022-10-08T04:52:04.585Z,14.19
2022-10-08T04:54:33.714Z,14.18
2022-10-08T04:57:02.917Z,14.17
2022-10-08T04:59:32.092Z,14.15
2022-10-08T05:02:01.339Z,14.15
2022-10-08T05:04:32.614Z,14.13
2022-10-08T05:07:01.789Z,14.12
2022-10-08T05:09:33.646Z,14.13
2022-10-08T05:12:02.476Z,14.10
2022-10-08T05:14:31.301Z,14.10
2022-10-08T05:17:00.299Z,14.09
2022-10-08T05:19:31.947Z,14.05
2022-10-08T05:22:01.256Z,14.09
2022-10-08T05:24:40.839Z,14.13
2022-10-08T05:27:14.494Z,14.17
2022-10-08T05:29:46.320Z,14.10
2022-10-08T05:32:15.505Z,14.13
2022-10-08T05:34:47.218Z,14.18
2022-10-08T05:37:23.053Z,14.23
2022-10-08T05:39:56.750Z,14.26
2022-10-08T05:42:25.684Z,14.28
2022-10-08T05:45:00.147Z,14.32
2022-10-08T05:47:31.991Z,14.34
2022-10-08T05:50:02.408Z,14.37
2022-10-08T05:52:33.640Z,14.37
2022-10-08T05:55:02.950Z,14.36
2022-10-08T05:57:32.213Z,14.34
2022-10-08T06:00:05.545Z,14.35
2022-10-08T06:02:50.902Z,14.34
2022-10-08T06:05:21.569Z,14.35
2022-10-08T06:07:53.077Z,14.37
2022-10-08T06:10:28.287Z,14.41
2022-10-08T06:13:00.257Z,14.41
2022-10-08T06:15:38.440Z,14.42
2022-10-08T06:18:19.779Z,14.44
2022-10-08T06:20:54.479Z,14.48
2022-10-08T06:23:36.131Z,14.50
2022-10-08T06:26:09.951Z,14.53
2022-10-08T06:28:44.485Z,14.55
2022-10-08T06:31:30.879Z,14.61
2022-10-08T06:34:24.839Z,14.68
2022-10-08T06:37:08.619Z,14.78
2022-10-08T06:39:44.905Z,14.90
2022-10-08T06:42:20.377Z,15.04
2022-10-08T06:44:49.533Z,15.16
2022-10-08T06:47:31.196Z,15.24
2022-10-08T06:50:05.323Z,15.36
2022-10-08T06:52:35.518Z,15.52
2022-10-08T06:55:11.294Z,15.67
2022-10-08T06:57:52.931Z,15.81
2022-10-08T07:00:37.950Z,15.97
2022-10-08T07:03:10.630Z,16.05
2022-10-08T07:05:39.848Z,16.25
2022-10-08T07:08:09.058Z,16.54
2022-10-08T07:10:37.809Z,16.73
2022-10-08T07:13:06.685Z,16.83
2022-10-08T07:15:35.611Z,16.87
2022-10-08T07:18:12.325Z,16.89
2022-10-08T07:20:45.880Z,17.12
2022-10-08T07:23:34.128Z,17.47
2022-10-08T07:26:31.411Z,17.78
2022-10-08T07:29:05.653Z,18.09
2022-10-08T07:31:37.589Z,18.38
2022-10-08T07:34:13.733Z,18.71
2022-10-08T07:36:43.279Z,19.04
2022-10-08T07:39:18.553Z,19.27
2022-10-08T07:41:56.790Z,19.50
2022-10-08T07:44:29.638Z,19.73
2022-10-08T07:46:58.513Z,19.92
2022-10-08T07:49:38.776Z,20.05
2022-10-08T07:52:11.774Z,20.27
2022-10-08T07:54:49.372Z,20.56
2022-10-08T07:57:35.233Z,20.80
2022-10-08T08:00:30.632Z,20.95
2022-10-08T08:03:18.875Z,21.00
2022-10-08T08:06:01.559Z,21.14
2022-10-08T08:08:45.936Z,21.35
2022-10-08T08:11:28.712Z,21.37
2022-10-08T08:14:07.777Z,21.49
2022-10-08T08:16:53.194Z,21.69
2022-10-08T08:19:28.143Z,21.86
2022-10-08T08:22:01.181Z,21.98
2022-10-08T08:24:33.192Z,22.07
2022-10-08T08:27:03.848Z,22.28
2022-10-08T08:29:39.021Z,22.27
2022-10-08T08:32:10.550Z,22.19
2022-10-08T08:34:40.664Z,22.27
2022-10-08T08:37:09.934Z,22.33
2022-10-08T08:39:41.617Z,22.42
2022-10-08T08:42:44.216Z,22.60
2022-10-08T08:45:48.774Z,22.60
2022-10-08T08:48:28.574Z,22.82
2022-10-08T08:50:59.667Z,23.02
2022-10-08T08:53:31.547Z,22.90
2022-10-08T08:56:06.822Z,22.57
2022-10-08T08:59:06.177Z,22.42
2022-10-08T09:01:43.537Z,22.36
2022-10-08T09:04:31.070Z,22.31
2022-10-08T09:07:02.164Z,22.20
2022-10-08T09:09:38.224Z,22.17
2022-10-08T09:12:31.489Z,22.14
2022-10-08T09:15:01.927Z,22.14
2022-10-08T09:17:39.374Z,22.06
2022-10-08T09:20:15.448Z,22.01
2022-10-08T09:22:46.045Z,22.04
2022-10-08T09:25:22.183Z,22.10
2022-10-08T09:27:52.747Z,22.16
2022-10-08T09:30:25.157Z,22.21
2022-10-08T09:33:04.398Z,22.21
2022-10-08T09:35:44.163Z,22.12
2022-10-08T09:38:32.395Z,21.94
2022-10-08T09:41:20.662Z,22.07
2022-10-08T09:44:20.156Z,22.33
2022-10-08T09:47:06.446Z,22.41
2022-10-08T09:49:39.766Z,22.36
2022-10-08T09:52:26.226Z,22.26
2022-10-08T09:55:09.248Z,22.16
2022-10-08T09:57:48.335Z,22.14
2022-10-08T10:00:32.480Z,22.12
2022-10-08T10:03:18.319Z,21.95
2022-10-08T10:05:54.275Z,21.91
2022-10-08T10:08:49.687Z,21.86
2022-10-08T10:11:54.531Z,21.73
2022-10-08T10:14:55.473Z,21.66
2022-10-08T10:17:43.008Z,21.61
2022-10-08T10:20:29.900Z,21.43
2022-10-08T10:23:12.447Z,21.26
2022-10-08T10:26:16.633Z,21.11
2022-10-08T10:28:54.009Z,20.97
2022-10-08T10:31:29.294Z,20.87
2022-10-08T10:34:07.561Z,20.83
2022-10-08T10:36:49.290Z,20.78
2022-10-08T10:39:45.481Z,20.60
2022-10-08T10:42:44.082Z,20.29
2022-10-08T10:45:28.115Z,20.17
2022-10-08T10:47:58.032Z,20.16
2022-10-08T10:50:43.213Z,20.16
2022-10-08T10:53:30.962Z,20.14
2022-10-08T10:56:21.084Z,20.13
2022-10-08T10:59:40.110Z,20.07
2022-10-08T11:02:34.283Z,20.01
2022-10-08T11:05:27.718Z,20.02
2022-10-08T11:08:58.694Z,20.02
2022-10-08T11:11:48.918Z,20.02
2022-10-08T11:14:48.383Z,20.03
2022-10-08T11:17:31.020Z,20.02
2022-10-08T11:20:22.115Z,20.01
2022-10-08T11:24:20.734Z,20.01
2022-10-08T11:27:27.291Z,19.95
2022-10-08T11:30:14.448Z,19.89
2022-10-08T11:32:53.535Z,19.87
2022-10-08T11:42:06.339Z,19.89
2022-10-08T11:44:37.333Z,19.88
2022-10-08T11:47:41.674Z,19.90
2022-10-08T11:50:37.132Z,19.90
2022-10-08T11:53:22.779Z,19.91
2022-10-08T11:56:10.924Z,19.91
2022-10-08T11:58:57.465Z,19.95
2022-10-08T12:01:26.267Z,20.01
2022-10-08T12:04:09.050Z,20.05
2022-10-08T12:06:38.032Z,20.06
2022-10-08T12:09:21.268Z,20.06
2022-10-08T12:11:54.512Z,20.04
2022-10-08T12:14:23.277Z,20.00
2022-10-08T12:16:55.202Z,19.95
2022-10-08T12:19:33.448Z,19.87
2022-10-08T12:22:04.598Z,19.75
2022-10-08T12:24:39.607Z,19.64
2022-10-08T12:27:17.345Z,19.54
2022-10-08T12:30:16.949Z,19.43
2022-10-08T12:32:45.972Z,19.33
2022-10-08T12:35:47.225Z,19.24
2022-10-08T12:38:21.457Z,19.14
2022-10-08T12:41:04.318Z,19.11
2022-10-08T12:43:47.154Z,19.08
2022-10-08T12:46:56.430Z,19.05
2022-10-08T12:50:26.718Z,18.98
2022-10-08T12:52:56.216Z,18.91
2022-10-08T12:55:25.910Z,18.91
2022-10-08T12:57:55.126Z,18.89
2022-10-08T13:00:30.882Z,18.87
2022-10-08T13:03:05.991Z,18.87
2022-10-08T13:05:39.786Z,18.88
2022-10-08T13:08:42.740Z,18.88
2022-10-08T13:11:15.488Z,18.86
2022-10-08T13:13:51.121Z,18.83
2022-10-08T13:16:29.103Z,18.85
2022-10-08T13:18:58.882Z,18.86
2022-10-08T13:21:34.334Z,18.86
2022-10-08T13:24:12.263Z,18.83
2022-10-08T13:26:52.526Z,18.79
2022-10-08T13:29:21.802Z,18.75
2022-10-08T13:32:03.714Z,18.73
2022-10-08T13:34:43.729Z,18.75
2022-10-08T13:37:21.817Z,18.75
2022-10-08T13:40:12.924Z,18.76
2022-10-08T13:42:55.496Z,18.77
2022-10-08T13:45:36.927Z,18.72
2022-10-08T13:48:13.894Z,18.72
2022-10-08T13:50:56.746Z,18.71
2022-10-08T13:53:27.175Z,18.72
2022-10-08T13:56:08.409Z,18.72
2022-10-08T13:58:37.761Z,18.73
2022-10-08T14:01:13.678Z,18.75
2022-10-08T14:03:44.885Z,18.75
2022-10-08T14:06:25.306Z,18.75
2022-10-08T14:09:03.344Z,18.73
2022-10-08T14:11:35.030Z,18.70
2022-10-08T14:14:04.032Z,18.68
2022-10-08T14:16:33.199Z,18.66
2022-10-08T14:19:03.630Z,18.63
2022-10-08T14:21:33.376Z,18.54
2022-10-08T14:24:03.068Z,18.42
2022-10-08T14:26:36.210Z,18.33
2022-10-08T14:29:18.004Z,18.27
2022-10-08T14:31:47.191Z,18.21
2022-10-08T14:34:16.159Z,18.15
2022-10-08T14:36:50.302Z,18.09
2022-10-08T14:39:19.338Z,18.03
2022-10-08T14:41:48.926Z,17.97
2022-10-08T14:44:22.280Z,17.93
2022-10-08T14:46:55.566Z,17.87
2022-10-08T14:49:24.608Z,17.83
2022-10-08T14:51:53.509Z,17.79
2022-10-08T14:54:22.626Z,17.75
2022-10-08T14:56:51.890Z,17.71
2022-10-08T14:59:39.063Z,17.67
2022-10-08T15:02:11.911Z,17.62
2022-10-08T15:04:40.836Z,17.58
2022-10-08T15:07:09.802Z,17.56
2022-10-08T15:09:40.783Z,17.48
2022-10-08T15:12:09.564Z,17.43
2022-10-08T15:14:38.645Z,17.40
2022-10-08T15:17:07.892Z,17.39
2022-10-08T15:19:36.651Z,17.36
2022-10-08T15:22:05.492Z,17.34
2022-10-08T15:24:34.399Z,17.32
2022-10-08T15:27:03.518Z,17.28
2022-10-08T15:29:32.533Z,17.23
2022-10-08T15:32:04.087Z,17.17
2022-10-08T15:34:33.690Z,17.11
2022-10-08T15:37:02.959Z,17.08
2022-10-08T15:39:35.614Z,17.06
2022-10-08T15:42:05.749Z,17.04
2022-10-08T15:44:36.618Z,17.03
2022-10-08T15:47:08.001Z,17.01
2022-10-08T15:49:42.608Z,16.95
2022-10-08T15:52:21.275Z,16.92
2022-10-08T15:54:49.949Z,16.88
2022-10-08T15:57:19.324Z,16.86
2022-10-08T15:59:48.179Z,16.82
2022-10-08T16:02:18.271Z,16.79
2022-10-08T16:04:48.042Z,16.75
2022-10-08T16:07:17.340Z,16.74
2022-10-08T16:09:46.040Z,16.72
2022-10-08T16:12:14.971Z,16.70
2022-10-08T16:14:44.083Z,16.66
2022-10-08T16:17:13.353Z,16.64
2022-10-08T16:19:42.479Z,16.58
2022-10-08T16:22:11.297Z,16.52
2022-10-08T16:24:40.293Z,16.44
2022-10-08T16:27:09.437Z,16.40
2022-10-08T16:29:38.684Z,16.36
2022-10-08T16:32:07.512Z,16.32
2022-10-08T16:34:36.313Z,16.28
2022-10-08T16:37:05.234Z,16.24
2022-10-08T16:39:34.073Z,16.19
2022-10-08T16:42:03.008Z,16.13
2022-10-08T16:44:31.989Z,16.09
2022-10-08T16:47:01.029Z,16.04
2022-10-08T16:49:30.327Z,16.00
2022-10-08T16:52:08.693Z,16.00
2022-10-08T16:54:38.284Z,15.98
2022-10-08T16:57:10.444Z,15.97
2022-10-08T16:59:39.580Z,15.97
2022-10-08T17:02:10.726Z,15.94
2022-10-08T17:04:39.989Z,15.90
2022-10-08T17:07:09.049Z,15.83
2022-10-08T17:09:38.081Z,15.78
2022-10-08T17:12:09.950Z,15.74
2022-10-08T17:14:38.817Z,15.72
2022-10-08T17:17:08.119Z,15.70
2022-10-08T17:19:37.187Z,15.66
2022-10-08T17:22:06.286Z,15.64
2022-10-08T17:24:42.276Z,15.63
2022-10-08T17:27:13.577Z,15.63
2022-10-08T17:29:43.255Z,15.60
2022-10-08T17:32:12.268Z,15.54
2022-10-08T17:34:41.320Z,15.50
2022-10-08T17:37:10.908Z,15.47
2022-10-08T17:39:40.057Z,15.43
2022-10-08T17:42:09.215Z,15.41
2022-10-08T17:44:39.691Z,15.39
2022-10-08T17:47:08.835Z,15.36
2022-10-08T17:49:37.870Z,15.34
2022-10-08T17:52:07.629Z,15.32
2022-10-08T17:54:37.064Z,15.28
2022-10-08T17:57:06.161Z,15.24
2022-10-08T17:59:35.052Z,15.19
2022-10-08T18:02:04.179Z,15.16
2022-10-08T18:04:33.623Z,15.16
2022-10-08T18:07:09.060Z,15.17
2022-10-08T18:09:40.958Z,15.18
2022-10-08T18:12:12.384Z,15.20
2022-10-08T18:14:41.408Z,15.17
2022-10-08T18:17:23.593Z,15.14
2022-10-08T18:19:52.675Z,15.12
2022-10-08T18:22:23.263Z,15.11
2022-10-08T18:24:52.736Z,15.10
2022-10-08T18:27:21.867Z,15.09
2022-10-08T18:29:53.821Z,15.10
2022-10-08T18:32:22.978Z,15.11
2022-10-08T18:34:51.988Z,15.10
2022-10-08T18:37:21.062Z,15.09
2022-10-08T18:39:51.558Z,15.07
2022-10-08T18:42:20.688Z,15.04
2022-10-08T18:44:49.617Z,15.01
2022-10-08T18:47:19.572Z,14.98
2022-10-08T18:49:48.371Z,14.97
2022-10-08T18:52:21.370Z,14.97
2022-10-08T18:54:53.500Z,14.98
2022-10-08T18:57:22.908Z,15.00
2022-10-08T18:59:51.723Z,15.01
2022-10-08T19:02:20.946Z,15.01
2022-10-08T19:04:50.369Z,15.00
2022-10-08T19:07:19.380Z,14.99
2022-10-08T19:09:48.328Z,14.98
2022-10-08T19:12:17.590Z,14.97
2022-10-08T19:14:51.078Z,14.95
2022-10-08T19:17:22.542Z,14.95
2022-10-08T19:19:51.808Z,14.95
2022-10-08T19:22:21.356Z,14.95
2022-10-08T19:24:51.087Z,14.93
2022-10-08T19:27:22.241Z,14.91
2022-10-08T19:29:51.751Z,14.86
2022-10-08T19:32:20.946Z,14.83
2022-10-08T19:34:49.883Z,14.81
2022-10-08T19:37:19.254Z,14.77
2022-10-08T19:39:48.961Z,14.76
2022-10-08T19:42:18.039Z,14.71
2022-10-08T19:44:46.952Z,14.71
2022-10-08T19:47:15.792Z,14.71
2022-10-08T19:49:47.786Z,14.70
2022-10-08T19:52:28.682Z,14.68
2022-10-08T19:54:59.190Z,14.69
2022-10-08T19:57:29.505Z,14.70
2022-10-08T20:00:01.119Z,14.70
2022-10-08T20:02:37.761Z,14.71
2022-10-08T20:05:07.883Z,14.69
2022-10-08T20:07:37.134Z,14.65
2022-10-08T20:10:07.107Z,14.56
2022-10-08T20:12:36.304Z,14.50
2022-10-08T20:15:11.117Z,14.42
2022-10-08T20:17:39.956Z,14.34
2022-10-08T20:20:31.214Z,14.26
2022-10-08T20:22:58.809Z,14.19
2022-10-08T20:25:30.740Z,14.13
2022-10-08T20:27:59.777Z,14.10
2022-10-08T20:30:29.489Z,14.06
2022-10-08T20:32:58.248Z,14.04
2022-10-08T20:35:27.089Z,14.02
2022-10-08T20:37:55.853Z,13.99
2022-10-08T20:40:24.666Z,13.95
2022-10-08T20:42:53.497Z,13.90
2022-10-08T20:45:22.425Z,13.86
2022-10-08T20:47:51.475Z,13.82
2022-10-08T20:50:20.297Z,13.75
2022-10-08T20:52:51.327Z,13.67
2022-10-08T20:55:20.261Z,13.60
2022-10-08T20:57:49.069Z,13.54
2022-10-08T21:00:18.055Z,13.49
2022-10-08T21:02:47.101Z,13.42
2022-10-08T21:05:16.110Z,13.38
2022-10-08T21:07:46.011Z,13.33
2022-10-08T21:10:14.926Z,13.30
2022-10-08T21:12:43.934Z,13.26
2022-10-08T21:15:12.680Z,13.21
2022-10-08T21:17:41.472Z,13.16
2022-10-08T21:20:10.177Z,13.11
2022-10-08T21:22:38.933Z,13.07
2022-10-08T21:25:11.089Z,13.02
2022-10-08T21:27:40.355Z,12.96
2022-10-08T21:30:09.982Z,12.91
2022-10-08T21:32:38.771Z,12.86
2022-10-08T21:35:08.216Z,12.82
2022-10-08T21:37:36.959Z,12.80
2022-10-08T21:40:09.101Z,12.77
2022-10-08T21:42:42.009Z,12.73
2022-10-08T21:45:14.172Z,12.69
2022-10-08T21:47:42.983Z,12.65
2022-10-08T21:50:11.804Z,12.62
2022-10-08T21:52:40.647Z,12.58
2022-10-08T21:55:09.571Z,12.49
2022-10-08T21:57:38.263Z,12.46
2022-10-08T22:00:11.914Z,12.42
2022-10-08T22:02:43.187Z,12.37
2022-10-08T22:05:12.157Z,12.34
2022-10-08T22:07:41.010Z,12.32
2022-10-08T22:10:09.825Z,12.31
2022-10-08T22:12:38.682Z,12.29
2022-10-08T22:15:08.141Z,12.25
2022-10-08T22:17:36.886Z,12.21
2022-10-08T22:20:06.096Z,12.17
2022-10-08T22:22:35.122Z,12.14
2022-10-08T22:25:04.404Z,12.09
2022-10-08T22:27:33.533Z,12.05
2022-10-08T22:30:02.476Z,12.03
2022-10-08T22:32:31.394Z,12.02
2022-10-08T22:35:06.539Z,12.01
2022-10-08T22:37:35.495Z,12.00
2022-10-08T22:40:04.700Z,11.96
2022-10-08T22:42:36.445Z,11.92
2022-10-08T22:45:06.822Z,11.89
2022-10-08T22:47:35.691Z,11.87
2022-10-08T22:50:06.007Z,11.83
2022-10-08T22:52:34.941Z,11.80
2022-10-08T22:55:04.095Z,11.78
2022-10-08T22:57:32.934Z,11.76
2022-10-08T23:00:01.941Z,11.71
2022-10-08T23:02:30.939Z,11.66
2022-10-08T23:04:59.907Z,11.64
2022-10-08T23:07:28.771Z,11.60
2022-10-08T23:10:00.201Z,11.56
2022-10-08T23:12:29.242Z,11.52
2022-10-08T23:14:58.146Z,11.48
2022-10-08T23:17:27.019Z,11.46
2022-10-08T23:19:55.908Z,11.42
2022-10-08T23:22:25.284Z,11.42
2022-10-08T23:24:54.164Z,11.40
2022-10-08T23:27:25.219Z,11.38
2022-10-08T23:29:56.250Z,11.36
2022-10-08T23:32:25.138Z,11.32
2022-10-08T23:34:54.094Z,11.29
2022-10-08T23:37:35.177Z,11.26
2022-10-08T23:40:06.058Z,11.22
2022-10-08T23:42:38.382Z,11.20
2022-10-08T23:45:08.039Z,11.20
2022-10-08T23:47:37.657Z,11.19
2022-10-08T23:50:10.538Z,11.18
2022-10-08T23:52:39.530Z,11.16
2022-10-08T23:55:09.007Z,11.13
2022-10-08T23:57:37.919Z,11.10
